Miguel Oliver — ECLX — position and weather

sailwx.info

Track history (hours):
 
Tides and Currents Weather Stations Pressure Air Temp Water Temp Dewpoint Dewpoint Depression Visibility Wind Speed Wind Dir Waves Ship Positions

Oceanographic research ship Miguel Oliver (Spain)

Ship's website: http://www.mapa.es/es/pesca/pags/miguel_web/index.htm

Last reported at 2020-Jul-05 03:32 UTC. Time now 2020-Jul-07 14:52 UTC.
Position N 41°05' E 001°37'.

Length 70 m; draft 6 m.

Type: Other ship. MMSI: 225322000.

Date/timePositionNaut miles runAvg speedWind from/ knotsBaromVisibWave heightAir tempDewpointWater temp
2020-Jul-05 03:32N 41°05' E 001°37'3 5.8
2020-Jul-05 03:00N 41°06' E 001°41'28 6.3
2020-Jul-04 22:30N 41°19' E 002°15'16 6.4
2020-Jul-04 20:00N 41°07' E 001°59'4 8.4
2020-Jul-04 19:30N 41°08' E 001°54'3 0.4
2020-Jul-04 12:30N 41°11' E 001°52'5 4.6
2020-Jul-04 11:30N 41°09' E 001°58'25 2.9
2020-Jul-04 03:00N 41°25' E 002°24'2 1.9
2020-Jul-04 02:00N 41°26' E 002°26'10 2.1
2020-Jul-03 21:30N 41°31' E 002°37'2 3.0
2020-Jul-03 21:00N 41°32' E 002°38'12 4.0
2020-Jul-03 18:00N 41°28' E 002°23'9 6.3
2020-Jul-03 16:30N 41°19' E 002°28'1 2.1
2020-Jul-03 16:00N 41°20' E 002°27'510.0
2020-Jul-03 15:30N 41°24' E 002°23'4 4.0
2020-Jul-03 14:30N 41°28' E 002°24'0 0.6
2020-Jul-03 14:00N 41°28' E 002°24'3 6.2
2020-Jul-03 13:30N 41°26' E 002°21'12 4.2
2020-Jul-03 10:30N 41°24' E 002°37'4 7.4
2020-Jul-03 10:00N 41°27' E 002°34'5 9.7
2020-Jul-03 09:30N 41°30' E 002°31'5 9.6
2020-Jul-03 09:00N 41°33' E 002°36'2 5.0
2020-Jul-03 08:30N 41°34' E 002°39'4 2.0
2020-Jul-03 06:30N 41°32' E 002°43'7 2.9
2020-Jul-03 04:00N 41°33' E 002°52'4 4.1
2020-Jul-03 03:00N 41°36' E 002°56'2 4.5
2020-Jul-03 02:27N 41°38' E 002°58'6 0.6
2020-Jul-02 15:51N 41°39' E 002°50'19 4.1
2020-Jul-02 11:17N 41°35' E 003°14'28 1.6
2020-Jul-01 18:14N 42°01' E 003°25'3 0.2
2020-Jul-01 00:00N 42°04' E 003°24'32 5.8
2020-Jun-30 18:29N 41°34' E 003°08'6 8.6
2020-Jun-30 17:43N 41°29' E 003°02'3 8.9
2020-Jun-30 17:24N 41°27' E 002°60'8 8.9
2020-Jun-30 16:27N 41°20' E 002°53'9 9.1
2020-Jun-30 15:30N 41°13' E 002°46'9 8.7
2020-Jun-30 14:26N 41°06' E 002°39'8 8.6
2020-Jun-30 13:30N 40°59' E 002°33'14 8.7
2020-Jun-30 11:54N 40°47' E 002°23'176 8.7
2020-Jun-29 15:31N 38°24' E 000°09'31 1.9
2020-Jun-28 23:07N 38°20' W 000°29'4 0.5
2020-Jun-28 14:27N 38°18' W 000°25'142 7.3
2020-Jun-27 19:04N 39°16' E 002°21'111.5
2020-Jun-27 18:59N 39°17' E 002°22'20 8.0
2020-Jun-27 16:30N 39°31' E 002°40'0 0.0
2020-Jun-27 13:58N 39°31' E 002°40'0 0.0
2020-Jun-27 13:28N 39°31' E 002°40'0 0.0
2020-Jun-27 09:28N 39°31' E 002°40'0 0.0
2020-Jun-27 07:55N 39°31' E 002°40'0 0.0
2020-Jun-27 07:28N 39°31' E 002°40'2 1.6
2020-Jun-27 06:00N 39°33' E 002°38'0 0.0
2020-Jun-27 02:30N 39°33' E 002°38'0 0.0
2020-Jun-27 02:00N 39°33' E 002°38'0 0.0
2020-Jun-27 01:00N 39°33' E 002°38'0 0.0
2020-Jun-26 23:00N 39°33' E 002°38'0 0.0
2020-Jun-26 21:00N 39°33' E 002°38'0 0.0
2020-Jun-26 20:30N 39°33' E 002°38'0 0.0
2020-Jun-26 19:00N 39°33' E 002°38'0 0.0
2020-Jun-26 17:30N 39°33' E 002°38'0 0.0
2020-Jun-26 16:00N 39°33' E 002°38'0 0.0
2020-Jun-26 14:00N 39°33' E 002°38'0 0.0
2020-Jun-26 13:00N 39°33' E 002°38'0 0.0
2020-Jun-26 12:30N 39°33' E 002°38'0 0.0
2020-Jun-26 12:00N 39°33' E 002°38'0 0.0
2020-Jun-26 11:30N 39°33' E 002°38'0 0.0
2020-Jun-26 11:00N 39°33' E 002°38'0 0.0
2020-Jun-26 08:00N 39°33' E 002°38'0 0.0
2020-Jun-26 07:27N 39°33' E 002°38'0 0.0
2020-Jun-26 07:00N 39°33' E 002°38'0 0.0
2020-Jun-26 06:00N 39°33' E 002°38'0 0.0
2020-Jun-26 05:30N 39°33' E 002°38'0 0.0
2020-Jun-26 02:29N 39°33' E 002°38'0 0.0
2020-Jun-26 00:29N 39°33' E 002°38'0 0.0
2020-Jun-25 19:59N 39°33' E 002°38'0 0.0
2020-Jun-25 18:59N 39°33' E 002°38'0 0.0
2020-Jun-25 17:59N 39°33' E 002°38'0 0.0
2020-Jun-25 16:29N 39°33' E 002°38'0 0.0
2020-Jun-25 14:29N 39°33' E 002°38'0 0.0
2020-Jun-25 12:59N 39°33' E 002°38'0 0.0
2020-Jun-25 12:29N 39°33' E 002°38'0 0.0
2020-Jun-25 11:59N 39°33' E 002°38'0 0.0
2020-Jun-25 11:29N 39°33' E 002°38'0 0.0
2020-Jun-25 09:26N 39°33' E 002°38'0 0.0
2020-Jun-25 08:29N 39°33' E 002°38'6 1.8
2020-Jun-25 05:00N 39°27' E 002°36'3 2.8
2020-Jun-25 04:00N 39°24' E 002°36'  
Track history (hours):
 
Tides and Currents Weather Stations Pressure Air Temp Water Temp Dewpoint Dewpoint Depression Visibility Wind Speed Wind Dir Waves Ship Positions

Oceanographic research ship Miguel Oliver (Spain)

Ship's website: http://www.mapa.es/es/pesca/pags/miguel_web/index.htm

Last reported at 2020-Jul-05 03:32 UTC. Time now 2020-Jul-07 14:52 UTC.
Position N 41°05' E 001°37'.

Length 70 m; draft 6 m.

Type: Other ship. MMSI: 225322000.

Date/timePositionNaut miles runAvg speedWind from/ knotsBaromVisibWave heightAir tempDewpointWater temp
2020-Jul-05 03:32N 41°05' E 001°37'3 5.8
2020-Jul-05 03:00N 41°06' E 001°41'28 6.3
2020-Jul-04 22:30N 41°19' E 002°15'16 6.4
2020-Jul-04 20:00N 41°07' E 001°59'4 8.4
2020-Jul-04 19:30N 41°08' E 001°54'3 0.4
2020-Jul-04 12:30N 41°11' E 001°52'5 4.6
2020-Jul-04 11:30N 41°09' E 001°58'25 2.9
2020-Jul-04 03:00N 41°25' E 002°24'2 1.9
2020-Jul-04 02:00N 41°26' E 002°26'10 2.1
2020-Jul-03 21:30N 41°31' E 002°37'2 3.0
2020-Jul-03 21:00N 41°32' E 002°38'12 4.0
2020-Jul-03 18:00N 41°28' E 002°23'9 6.3
2020-Jul-03 16:30N 41°19' E 002°28'1 2.1
2020-Jul-03 16:00N 41°20' E 002°27'510.0
2020-Jul-03 15:30N 41°24' E 002°23'4 4.0
2020-Jul-03 14:30N 41°28' E 002°24'0 0.6
2020-Jul-03 14:00N 41°28' E 002°24'3 6.2
2020-Jul-03 13:30N 41°26' E 002°21'12 4.2
2020-Jul-03 10:30N 41°24' E 002°37'4 7.4
2020-Jul-03 10:00N 41°27' E 002°34'5 9.7
2020-Jul-03 09:30N 41°30' E 002°31'5 9.6
2020-Jul-03 09:00N 41°33' E 002°36'2 5.0
2020-Jul-03 08:30N 41°34' E 002°39'4 2.0
2020-Jul-03 06:30N 41°32' E 002°43'7 2.9
2020-Jul-03 04:00N 41°33' E 002°52'4 4.1
2020-Jul-03 03:00N 41°36' E 002°56'2 4.5
2020-Jul-03 02:27N 41°38' E 002°58'6 0.6
2020-Jul-02 15:51N 41°39' E 002°50'19 4.1
2020-Jul-02 11:17N 41°35' E 003°14'28 1.6
2020-Jul-01 18:14N 42°01' E 003°25'3 0.2
2020-Jul-01 00:00N 42°04' E 003°24'32 5.8
2020-Jun-30 18:29N 41°34' E 003°08'6 8.6
2020-Jun-30 17:43N 41°29' E 003°02'3 8.9
2020-Jun-30 17:24N 41°27' E 002°60'8 8.9
2020-Jun-30 16:27N 41°20' E 002°53'9 9.1
2020-Jun-30 15:30N 41°13' E 002°46'9 8.7
2020-Jun-30 14:26N 41°06' E 002°39'8 8.6
2020-Jun-30 13:30N 40°59' E 002°33'14 8.7
2020-Jun-30 11:54N 40°47' E 002°23'176 8.7
2020-Jun-29 15:31N 38°24' E 000°09'31 1.9
2020-Jun-28 23:07N 38°20' W 000°29'4 0.5
2020-Jun-28 14:27N 38°18' W 000°25'142 7.3
2020-Jun-27 19:04N 39°16' E 002°21'111.5
2020-Jun-27 18:59N 39°17' E 002°22'20 8.0
2020-Jun-27 16:30N 39°31' E 002°40'0 0.0
2020-Jun-27 13:58N 39°31' E 002°40'0 0.0
2020-Jun-27 13:28N 39°31' E 002°40'0 0.0
2020-Jun-27 09:28N 39°31' E 002°40'0 0.0
2020-Jun-27 07:55N 39°31' E 002°40'0 0.0
2020-Jun-27 07:28N 39°31' E 002°40'2 1.6
2020-Jun-27 06:00N 39°33' E 002°38'0 0.0
2020-Jun-27 02:30N 39°33' E 002°38'0 0.0
2020-Jun-27 02:00N 39°33' E 002°38'0 0.0
2020-Jun-27 01:00N 39°33' E 002°38'0 0.0
2020-Jun-26 23:00N 39°33' E 002°38'0 0.0
2020-Jun-26 21:00N 39°33' E 002°38'0 0.0
2020-Jun-26 20:30N 39°33' E 002°38'0 0.0
2020-Jun-26 19:00N 39°33' E 002°38'0 0.0
2020-Jun-26 17:30N 39°33' E 002°38'0 0.0
2020-Jun-26 16:00N 39°33' E 002°38'0 0.0
2020-Jun-26 14:00N 39°33' E 002°38'0 0.0
2020-Jun-26 13:00N 39°33' E 002°38'0 0.0
2020-Jun-26 12:30N 39°33' E 002°38'0 0.0
2020-Jun-26 12:00N 39°33' E 002°38'0 0.0
2020-Jun-26 11:30N 39°33' E 002°38'0 0.0
2020-Jun-26 11:00N 39°33' E 002°38'0 0.0
2020-Jun-26 08:00N 39°33' E 002°38'0 0.0
2020-Jun-26 07:27N 39°33' E 002°38'0 0.0
2020-Jun-26 07:00N 39°33' E 002°38'0 0.0
2020-Jun-26 06:00N 39°33' E 002°38'0 0.0
2020-Jun-26 05:30N 39°33' E 002°38'0 0.0
2020-Jun-26 02:29N 39°33' E 002°38'0 0.0
2020-Jun-26 00:29N 39°33' E 002°38'0 0.0
2020-Jun-25 19:59N 39°33' E 002°38'0 0.0
2020-Jun-25 18:59N 39°33' E 002°38'0 0.0
2020-Jun-25 17:59N 39°33' E 002°38'0 0.0
2020-Jun-25 16:29N 39°33' E 002°38'0 0.0
2020-Jun-25 14:29N 39°33' E 002°38'0 0.0
2020-Jun-25 12:59N 39°33' E 002°38'0 0.0
2020-Jun-25 12:29N 39°33' E 002°38'0 0.0
2020-Jun-25 11:59N 39°33' E 002°38'0 0.0
2020-Jun-25 11:29N 39°33' E 002°38'0 0.0
2020-Jun-25 09:26N 39°33' E 002°38'0 0.0
2020-Jun-25 08:29N 39°33' E 002°38'6 1.8
2020-Jun-25 05:00N 39°27' E 002°36'3 2.8
2020-Jun-25 04:00N 39°24' E 002°36'  

Dump ship's entire track history